createdAt,value
2023-02-17T00:00:54.613Z,63.16
2023-02-17T00:03:24.088Z,63.16
2023-02-17T00:05:53.490Z,63.41
2023-02-17T00:08:21.329Z,63.23
2023-02-17T00:10:56.147Z,63.21
2023-02-17T00:13:24.129Z,63.25
2023-02-17T00:15:52.229Z,63.22
2023-02-17T00:18:20.113Z,63.31
2023-02-17T00:20:48.280Z,63.52
2023-02-17T00:23:17.810Z,63.62
2023-02-17T00:25:45.767Z,63.91
2023-02-17T00:28:13.779Z,63.56
2023-02-17T00:30:41.703Z,63.72
2023-02-17T00:33:09.716Z,63.71
2023-02-17T00:35:40.268Z,63.77
2023-02-17T00:38:08.177Z,63.77
2023-02-17T00:40:37.222Z,63.42
2023-02-17T00:43:06.596Z,63.68
2023-02-17T00:45:34.661Z,63.75
2023-02-17T00:48:02.571Z,63.64
2023-02-17T00:50:30.569Z,63.65
2023-02-17T00:52:58.624Z,63.72
2023-02-17T00:55:26.805Z,63.40
2023-02-17T00:57:54.831Z,63.32
2023-02-17T01:00:24.334Z,63.53
2023-02-17T01:02:52.329Z,63.94
2023-02-17T01:05:20.528Z,64.05
2023-02-17T01:07:48.514Z,63.85
2023-02-17T01:10:16.934Z,63.88
2023-02-17T01:12:44.892Z,64.00
2023-02-17T01:15:12.922Z,63.90
2023-02-17T01:17:42.272Z,63.83
2023-02-17T01:20:10.401Z,63.71
2023-02-17T01:22:39.592Z,63.65
2023-02-17T01:25:07.977Z,63.68
2023-02-17T01:27:36.452Z,63.44
2023-02-17T01:30:04.827Z,63.50
2023-02-17T01:32:32.778Z,63.50
2023-02-17T01:35:02.173Z,63.55
2023-02-17T01:37:30.817Z,63.25
2023-02-17T01:39:58.706Z,63.31
2023-02-17T01:42:26.690Z,63.20
2023-02-17T01:45:29.348Z,63.27
2023-02-17T01:48:00.437Z,63.18
2023-02-17T01:50:32.698Z,63.21
2023-02-17T01:53:01.394Z,62.89
2023-02-17T01:55:29.474Z,62.99
2023-02-17T01:58:00.539Z,63.02
2023-02-17T02:00:30.244Z,63.00
2023-02-17T02:02:58.400Z,62.90
2023-02-17T02:05:26.581Z,63.02
2023-02-17T02:07:56.044Z,63.05
2023-02-17T02:10:24.029Z,63.16
2023-02-17T02:12:51.953Z,63.18
2023-02-17T02:15:21.218Z,63.18
2023-02-17T02:18:01.004Z,63.16
2023-02-17T02:20:56.590Z,63.45
2023-02-17T02:23:45.249Z,63.39
2023-02-17T02:26:31.851Z,63.64
2023-02-17T02:29:09.327Z,64.16
2023-02-17T02:31:43.672Z,64.58
2023-02-17T02:34:16.938Z,64.82
2023-02-17T02:36:46.586Z,64.96
2023-02-17T02:39:17.190Z,64.78
2023-02-17T02:41:46.517Z,64.74
2023-02-17T02:44:15.842Z,64.82
2023-02-17T02:46:43.816Z,65.32
2023-02-17T02:49:13.465Z,64.90
2023-02-17T02:51:47.533Z,65.23
2023-02-17T02:54:38.426Z,66.06
2023-02-17T02:57:12.995Z,65.74
2023-02-17T02:59:45.925Z,65.59
2023-02-17T03:02:18.270Z,65.88
2023-02-17T03:04:52.931Z,66.00
2023-02-17T03:07:24.398Z,66.00
2023-02-17T03:09:53.397Z,65.73
2023-02-17T03:12:22.046Z,65.81
2023-02-17T03:14:50.936Z,65.77
2023-02-17T03:17:18.946Z,65.92
2023-02-17T03:19:48.854Z,65.87
2023-02-17T03:22:19.082Z,65.92
2023-02-17T03:24:46.951Z,65.74
2023-02-17T03:27:14.882Z,66.19
2023-02-17T03:29:43.211Z,66.40
2023-02-17T03:32:11.497Z,66.53
2023-02-17T03:34:39.562Z,66.77
2023-02-17T03:37:08.985Z,66.75
2023-02-17T03:39:36.994Z,66.26
2023-02-17T03:42:05.124Z,66.43
2023-02-17T03:44:33.176Z,66.34
2023-02-17T03:47:01.087Z,66.08
2023-02-17T03:49:29.025Z,66.77
2023-02-17T03:51:58.378Z,66.90
2023-02-17T03:54:27.894Z,66.98
2023-02-17T03:56:55.764Z,66.97
2023-02-17T03:59:23.826Z,66.80
2023-02-17T04:01:51.870Z,66.73
2023-02-17T04:04:19.919Z,66.75
2023-02-17T04:06:48.033Z,66.37
2023-02-17T04:09:16.051Z,66.69
2023-02-17T04:11:45.631Z,66.59
2023-02-17T04:14:13.666Z,66.29
2023-02-17T04:16:41.790Z,66.54
2023-02-17T04:19:10.057Z,66.48
2023-02-17T04:21:38.310Z,66.71
2023-02-17T04:24:06.350Z,67.60
2023-02-17T04:26:34.201Z,67.80
2023-02-17T04:29:04.641Z,67.93
2023-02-17T04:31:32.776Z,68.19
2023-02-17T04:34:01.032Z,68.05
2023-02-17T04:36:29.030Z,68.50
2023-02-17T04:38:57.081Z,67.92
2023-02-17T04:41:24.976Z,68.43
2023-02-17T04:43:52.900Z,67.95
2023-02-17T04:46:22.191Z,68.38
2023-02-17T04:48:50.209Z,67.67
2023-02-17T04:51:18.128Z,67.97
2023-02-17T04:53:46.010Z,68.38
2023-02-17T04:56:13.948Z,68.13
2023-02-17T04:58:42.045Z,68.16
2023-02-17T05:01:10.151Z,68.96
2023-02-17T05:03:39.546Z,69.54
2023-02-17T05:06:08.204Z,69.36
2023-02-17T05:08:36.332Z,69.46
2023-02-17T05:11:04.861Z,69.57
2023-02-17T05:13:34.449Z,70.21
2023-02-17T05:16:02.428Z,70.12
2023-02-17T05:18:31.084Z,69.89
2023-02-17T05:21:00.531Z,69.69
2023-02-17T05:23:28.464Z,69.70
2023-02-17T05:25:56.438Z,69.71
2023-02-17T05:28:24.407Z,69.09
2023-02-17T05:30:52.482Z,69.25
2023-02-17T05:33:20.583Z,68.77
2023-02-17T05:35:48.741Z,68.71
2023-02-17T05:38:18.927Z,68.28
2023-02-17T05:40:51.208Z,68.41
2023-02-17T05:43:22.378Z,68.04
2023-02-17T05:45:50.553Z,67.77
2023-02-17T05:48:18.641Z,67.49
2023-02-17T05:50:46.731Z,67.45
2023-02-17T05:53:14.789Z,67.10
2023-02-17T05:55:44.461Z,66.43
2023-02-17T05:58:12.997Z,65.83
2023-02-17T06:00:57.285Z,65.57
2023-02-17T06:03:30.451Z,65.69
2023-02-17T06:06:03.798Z,65.82
2023-02-17T06:11:18.679Z,65.83
2023-02-17T06:13:46.816Z,65.85
2023-02-17T06:16:14.991Z,65.93
2023-02-17T06:18:43.017Z,65.79
2023-02-17T06:21:11.768Z,65.89
2023-02-17T06:23:39.834Z,65.94
2023-02-17T06:26:09.584Z,65.69
2023-02-17T06:28:40.120Z,65.88
2023-02-17T06:31:08.666Z,65.59
2023-02-17T06:33:36.696Z,65.08
2023-02-17T06:36:05.156Z,64.34
2023-02-17T06:39:03.865Z,64.16
2023-02-17T06:42:05.434Z,63.77
2023-02-17T06:44:38.619Z,63.82
2023-02-17T06:47:21.919Z,63.55
2023-02-17T06:49:57.806Z,63.30
2023-02-17T06:52:56.987Z,62.99
2023-02-17T06:55:39.772Z,62.83
2023-02-17T06:58:17.220Z,63.10
2023-02-17T07:01:10.110Z,63.05
2023-02-17T07:03:50.964Z,63.03
2023-02-17T07:06:24.347Z,61.80
2023-02-17T07:09:10.054Z,60.60
2023-02-17T07:11:51.666Z,61.50
2023-02-17T07:14:41.797Z,60.73
2023-02-17T07:17:29.541Z,60.97
2023-02-17T07:20:08.174Z,60.78
2023-02-17T07:23:04.692Z,60.97
2023-02-17T07:25:47.460Z,59.66
2023-02-17T07:28:33.169Z,60.71
2023-02-17T07:31:06.641Z,59.42
2023-02-17T07:33:39.087Z,60.43
2023-02-17T07:36:21.684Z,60.49
2023-02-17T07:39:06.622Z,60.42
2023-02-17T07:41:43.464Z,59.86
2023-02-17T07:44:15.186Z,59.85
2023-02-17T07:46:49.220Z,58.99
2023-02-17T07:49:29.731Z,59.73
2023-02-17T07:52:13.309Z,59.61
2023-02-17T07:54:46.994Z,59.31
2023-02-17T07:57:33.971Z,59.72
2023-02-17T08:00:05.285Z,59.90
2023-02-17T08:02:49.934Z,59.73
2023-02-17T08:05:27.521Z,59.73
2023-02-17T08:08:21.554Z,59.75
2023-02-17T08:11:10.305Z,59.32
2023-02-17T08:13:46.348Z,59.66
2023-02-17T08:16:26.498Z,60.06
2023-02-17T08:18:58.377Z,59.87
2023-02-17T08:21:28.574Z,59.04
2023-02-17T08:23:56.562Z,58.77
2023-02-17T08:26:24.764Z,58.53
2023-02-17T08:28:52.827Z,59.04
2023-02-17T08:31:21.688Z,57.52
2023-02-17T08:33:50.042Z,56.52
2023-02-17T08:36:18.406Z,57.16
2023-02-17T08:38:50.494Z,57.33
2023-02-17T08:41:19.913Z,56.57
2023-02-17T08:43:48.271Z,57.22
2023-02-17T08:46:16.755Z,56.66
2023-02-17T08:48:44.859Z,57.28
2023-02-17T08:51:13.711Z,57.42
2023-02-17T08:53:41.872Z,57.27
2023-02-17T08:56:11.462Z,57.47
2023-02-17T08:58:49.705Z,57.51
2023-02-17T09:01:29.750Z,57.89
2023-02-17T09:04:18.938Z,57.01
2023-02-17T09:06:52.567Z,57.18
2023-02-17T09:09:28.309Z,57.32
2023-02-17T09:12:03.105Z,57.52
2023-02-17T09:14:35.195Z,57.23
2023-02-17T09:17:11.416Z,57.28
2023-02-17T09:19:55.746Z,57.35
2023-02-17T09:22:32.363Z,57.15
2023-02-17T09:25:00.986Z,57.20
2023-02-17T09:27:31.956Z,57.13
2023-02-17T09:30:03.555Z,57.52
2023-02-17T09:32:35.166Z,57.42
2023-02-17T09:35:06.207Z,57.30
2023-02-17T09:37:34.706Z,56.94
2023-02-17T09:40:09.940Z,56.77
2023-02-17T09:42:42.474Z,56.89
2023-02-17T09:45:13.028Z,56.73
2023-02-17T09:47:43.746Z,56.61
2023-02-17T09:50:13.389Z,56.80
2023-02-17T09:52:49.187Z,56.13
2023-02-17T09:55:19.798Z,56.36
2023-02-17T09:57:52.751Z,55.91
2023-02-17T10:00:24.643Z,56.16
2023-02-17T10:02:57.098Z,56.25
2023-02-17T10:05:29.440Z,56.60
2023-02-17T10:08:00.210Z,56.20
2023-02-17T10:10:31.538Z,55.32
2023-02-17T10:13:15.205Z,55.67
2023-02-17T10:15:48.535Z,55.83
2023-02-17T10:18:22.177Z,55.81
2023-02-17T10:21:04.677Z,55.88
2023-02-17T10:23:32.930Z,56.21
2023-02-17T10:26:08.663Z,56.21
2023-02-17T10:28:45.678Z,56.12
2023-02-17T10:31:14.878Z,55.80
2023-02-17T10:33:48.434Z,56.24
2023-02-17T10:36:24.886Z,55.41
2023-02-17T10:38:54.175Z,55.75
2023-02-17T10:41:24.046Z,55.56
2023-02-17T10:43:53.841Z,55.72
2023-02-17T10:46:27.118Z,55.00
2023-02-17T10:48:56.112Z,54.70
2023-02-17T10:51:26.206Z,55.47
2023-02-17T10:53:56.526Z,54.87
2023-02-17T10:56:26.973Z,55.33
2023-02-17T10:58:59.410Z,55.66
2023-02-17T11:01:28.908Z,55.67
2023-02-17T11:04:04.117Z,56.35
2023-02-17T11:06:33.643Z,56.04
2023-02-17T11:09:03.189Z,55.88
2023-02-17T11:11:31.898Z,56.03
2023-02-17T11:14:11.013Z,56.28
2023-02-17T11:16:40.141Z,55.97
2023-02-17T11:19:09.351Z,56.34
2023-02-17T11:21:44.439Z,56.55
2023-02-17T11:24:12.884Z,55.95
2023-02-17T11:26:41.111Z,55.96
2023-02-17T11:29:11.431Z,56.26
2023-02-17T11:31:39.826Z,56.36
2023-02-17T11:34:15.109Z,56.32
2023-02-17T11:36:45.739Z,56.47
2023-02-17T11:39:20.862Z,56.53
2023-02-17T11:41:48.922Z,56.78
2023-02-17T11:44:25.793Z,56.56
2023-02-17T11:46:57.623Z,56.75
2023-02-17T11:49:37.136Z,56.97
2023-02-17T11:52:10.669Z,56.86
2023-02-17T11:54:46.622Z,57.03
2023-02-17T11:57:23.812Z,56.94
2023-02-17T12:00:02.316Z,57.08
2023-02-17T12:02:41.082Z,57.41
2023-02-17T12:05:17.130Z,57.41
2023-02-17T12:07:51.224Z,57.89
2023-02-17T12:10:24.607Z,58.05
2023-02-17T12:12:59.238Z,58.33
2023-02-17T12:15:33.767Z,58.19
2023-02-17T12:18:10.012Z,58.04
2023-02-17T12:20:49.838Z,58.27
2023-02-17T12:23:30.135Z,57.92
2023-02-17T12:26:00.970Z,58.09
2023-02-17T12:28:40.602Z,57.63
2023-02-17T12:31:16.335Z,57.83
2023-02-17T12:33:51.943Z,57.74
2023-02-17T12:36:21.217Z,57.46
2023-02-17T12:38:51.160Z,57.53
2023-02-17T12:41:21.456Z,57.95
2023-02-17T12:43:51.962Z,57.29
2023-02-17T12:46:25.145Z,57.68
2023-02-17T12:48:56.975Z,57.66
2023-02-17T12:51:28.254Z,57.74
2023-02-17T12:53:57.916Z,57.71
2023-02-17T12:56:41.416Z,57.71
2023-02-17T12:59:16.278Z,58.02
2023-02-17T13:01:50.522Z,57.80
2023-02-17T13:04:19.477Z,57.82
2023-02-17T13:06:51.087Z,58.06
2023-02-17T13:09:23.349Z,58.63
2023-02-17T13:11:51.758Z,58.81
2023-02-17T13:14:26.770Z,59.04
2023-02-17T13:16:56.557Z,58.48
2023-02-17T13:19:31.658Z,58.89
2023-02-17T13:22:00.318Z,58.85
2023-02-17T13:24:33.534Z,59.39
2023-02-17T13:27:11.006Z,59.33
2023-02-17T13:29:39.104Z,59.11
2023-02-17T13:32:10.853Z,59.02
2023-02-17T13:34:39.618Z,59.04
2023-02-17T13:37:17.537Z,59.12
2023-02-17T13:39:45.950Z,59.24
2023-02-17T13:42:28.940Z,59.05
2023-02-17T13:44:56.928Z,59.27
2023-02-17T13:47:30.668Z,59.17
2023-02-17T13:49:59.194Z,59.19
2023-02-17T13:52:28.578Z,59.34
2023-02-17T13:54:57.465Z,59.30
2023-02-17T13:57:28.265Z,59.25
2023-02-17T14:00:06.704Z,59.07
2023-02-17T14:02:38.951Z,59.65
2023-02-17T14:05:18.180Z,59.33
2023-02-17T14:07:52.035Z,59.32
2023-02-17T14:10:21.698Z,59.53
2023-02-17T14:12:50.312Z,59.55
2023-02-17T14:15:18.906Z,59.48
2023-02-17T14:17:48.743Z,59.77
2023-02-17T14:20:29.515Z,59.97
2023-02-17T14:23:04.315Z,60.15
2023-02-17T14:25:33.441Z,60.16
2023-02-17T14:28:01.785Z,60.15
2023-02-17T14:30:33.194Z,60.16
2023-02-17T14:33:07.308Z,60.18
2023-02-17T14:35:36.089Z,60.24
2023-02-17T14:38:11.838Z,60.18
2023-02-17T14:40:40.370Z,60.16
2023-02-17T14:43:08.353Z,60.30
2023-02-17T14:45:36.473Z,60.55
2023-02-17T14:48:04.641Z,60.90
2023-02-17T14:50:34.808Z,61.41
2023-02-17T14:53:02.786Z,61.19
2023-02-17T14:55:33.801Z,61.08
2023-02-17T14:58:01.876Z,61.25
2023-02-17T15:00:32.441Z,61.33
2023-02-17T15:03:00.549Z,61.58
2023-02-17T15:05:28.590Z,61.26
2023-02-17T15:07:58.102Z,61.51
2023-02-17T15:10:27.223Z,61.60
2023-02-17T15:12:55.294Z,61.41
2023-02-17T15:15:23.585Z,61.45
2023-02-17T15:17:51.551Z,61.79
2023-02-17T15:20:19.848Z,61.84
2023-02-17T15:22:52.925Z,61.81
2023-02-17T15:25:37.972Z,62.34
2023-02-17T15:28:06.225Z,62.08
2023-02-17T15:30:34.325Z,62.28
2023-02-17T15:33:03.348Z,62.11
2023-02-17T15:35:31.589Z,62.88
2023-02-17T15:37:59.556Z,62.89
2023-02-17T15:40:28.834Z,63.51
2023-02-17T15:43:01.234Z,63.69
2023-02-17T15:45:29.173Z,63.04
2023-02-17T15:48:00.809Z,63.66
2023-02-17T15:50:28.733Z,63.32
2023-02-17T15:52:56.918Z,62.92
2023-02-17T15:55:25.159Z,63.43
2023-02-17T15:57:55.610Z,63.86
2023-02-17T16:00:26.909Z,64.40
2023-02-17T16:02:55.700Z,64.08
2023-02-17T16:05:24.624Z,63.97
2023-02-17T16:07:52.588Z,63.93
2023-02-17T16:10:21.752Z,64.05
2023-02-17T16:12:50.750Z,64.16
2023-02-17T16:15:20.305Z,64.84
2023-02-17T16:17:52.186Z,64.75
2023-02-17T16:20:21.245Z,64.68
2023-02-17T16:22:49.689Z,64.42
2023-02-17T16:25:18.739Z,64.50
2023-02-17T16:27:47.653Z,64.38
2023-02-17T16:30:17.469Z,64.63
2023-02-17T16:32:45.875Z,64.16
2023-02-17T16:35:19.070Z,64.42
2023-02-17T16:37:49.428Z,64.28
2023-02-17T16:40:18.360Z,64.62
2023-02-17T16:42:46.362Z,64.35
2023-02-17T16:45:18.253Z,64.26
2023-02-17T16:47:47.402Z,64.82
2023-02-17T16:50:22.379Z,65.02
2023-02-17T16:52:50.419Z,64.91
2023-02-17T16:55:19.260Z,65.03
2023-02-17T16:57:47.685Z,64.87
2023-02-17T17:00:17.672Z,65.30
2023-02-17T17:02:46.074Z,65.10
2023-02-17T17:05:14.351Z,65.27
2023-02-17T17:07:45.792Z,65.81
2023-02-17T17:10:17.063Z,65.61
2023-02-17T17:12:46.036Z,65.73
2023-02-17T17:15:14.250Z,65.96
2023-02-17T17:17:44.261Z,65.96
2023-02-17T17:20:15.006Z,65.68
2023-02-17T17:22:42.971Z,66.33
2023-02-17T17:25:12.408Z,66.37
2023-02-17T17:27:41.752Z,67.38
2023-02-17T17:30:10.908Z,68.44
2023-02-17T17:32:39.027Z,68.99
2023-02-17T17:35:07.373Z,68.71
2023-02-17T17:37:35.331Z,68.98
2023-02-17T17:40:03.793Z,68.56
2023-02-17T17:42:33.337Z,68.68
2023-02-17T17:45:01.302Z,68.79
2023-02-17T17:47:30.602Z,68.04
2023-02-17T17:49:58.759Z,68.34
2023-02-17T17:52:26.974Z,68.71
2023-02-17T17:54:55.072Z,68.67
2023-02-17T17:57:23.710Z,68.82
2023-02-17T17:59:59.778Z,68.86
2023-02-17T18:02:28.149Z,68.82
2023-02-17T18:04:56.397Z,68.57
2023-02-17T18:07:24.361Z,68.36
2023-02-17T18:09:52.855Z,68.35
2023-02-17T18:12:21.158Z,68.51
2023-02-17T18:14:50.663Z,68.65
2023-02-17T18:17:20.664Z,68.43
2023-02-17T18:19:49.684Z,68.30
2023-02-17T18:22:17.823Z,69.60
2023-02-17T18:24:48.985Z,69.05
2023-02-17T18:27:17.537Z,69.25
2023-02-17T18:29:45.819Z,69.14
2023-02-17T18:32:13.923Z,69.40
2023-02-17T18:34:43.449Z,70.01
2023-02-17T18:37:11.467Z,69.90
2023-02-17T18:39:39.474Z,69.96
2023-02-17T18:42:07.820Z,70.01
2023-02-17T18:44:35.769Z,69.84
2023-02-17T18:47:03.734Z,69.88
2023-02-17T18:49:32.581Z,70.24
2023-02-17T18:52:02.069Z,70.08
2023-02-17T18:54:30.234Z,69.96
2023-02-17T18:56:58.640Z,70.07
2023-02-17T18:59:27.389Z,70.15
2023-02-17T19:01:55.690Z,70.21
2023-02-17T19:07:09.603Z,70.16
2023-02-17T19:09:38.859Z,70.02
2023-02-17T19:12:10.416Z,70.37
2023-02-17T19:14:38.902Z,69.99
2023-02-17T19:17:06.993Z,70.04
2023-02-17T19:19:37.026Z,70.12
2023-02-17T19:22:08.264Z,70.24
2023-02-17T19:24:38.028Z,70.50
2023-02-17T19:27:06.246Z,70.45
2023-02-17T19:29:34.407Z,70.30
2023-02-17T19:32:03.423Z,71.05
2023-02-17T19:34:32.484Z,70.83
2023-02-17T19:37:06.077Z,70.22
2023-02-17T19:39:35.763Z,70.39
2023-02-17T19:42:05.667Z,70.84
2023-02-17T19:44:33.651Z,70.74
2023-02-17T19:47:01.700Z,70.98
2023-02-17T19:49:29.787Z,71.67
2023-02-17T19:51:57.909Z,71.01
2023-02-17T19:54:26.017Z,71.15
2023-02-17T19:56:54.109Z,71.04
2023-02-17T19:59:23.444Z,71.06
2023-02-17T20:01:51.424Z,71.14
2023-02-17T20:04:20.423Z,71.39
2023-02-17T20:06:48.694Z,71.36
2023-02-17T20:09:18.106Z,71.37
2023-02-17T20:11:46.571Z,71.68
2023-02-17T20:14:14.722Z,71.51
2023-02-17T20:16:44.273Z,71.64
2023-02-17T20:19:12.486Z,71.27
2023-02-17T20:21:44.931Z,71.17
2023-02-17T20:24:14.217Z,71.16
2023-02-17T20:26:43.834Z,71.69
2023-02-17T20:29:11.836Z,71.25
2023-02-17T20:31:41.047Z,71.11
2023-02-17T20:34:18.959Z,71.38
2023-02-17T20:36:47.102Z,71.98
2023-02-17T20:39:15.444Z,71.68
2023-02-17T20:41:43.495Z,71.89
2023-02-17T20:44:12.502Z,71.96
2023-02-17T20:46:43.078Z,71.31
2023-02-17T20:49:16.297Z,71.89
2023-02-17T20:51:44.501Z,71.84
2023-02-17T20:54:12.835Z,71.74
2023-02-17T20:56:41.864Z,71.84
2023-02-17T20:59:10.432Z,71.48
2023-02-17T21:01:38.498Z,71.82
2023-02-17T21:04:08.006Z,71.91
2023-02-17T21:06:38.206Z,72.09
2023-02-17T21:09:07.195Z,71.79
2023-02-17T21:11:35.275Z,71.85
2023-02-17T21:14:03.229Z,71.93
2023-02-17T21:16:32.211Z,72.06
2023-02-17T21:19:01.071Z,71.85
2023-02-17T21:21:29.578Z,71.66
2023-02-17T21:23:59.782Z,71.86
2023-02-17T21:26:28.109Z,72.33
2023-02-17T21:28:56.066Z,71.92
2023-02-17T21:31:24.125Z,72.07
2023-02-17T21:33:52.447Z,71.58
2023-02-17T21:36:20.452Z,71.68
2023-02-17T21:38:48.858Z,71.74
2023-02-17T21:41:22.282Z,72.03
2023-02-17T21:44:07.661Z,72.30
2023-02-17T21:46:37.546Z,72.07
2023-02-17T21:49:05.659Z,72.12
2023-02-17T21:51:33.727Z,72.22
2023-02-17T21:54:01.891Z,72.37
2023-02-17T21:56:31.605Z,72.39
2023-02-17T21:58:59.530Z,72.69
2023-02-17T22:01:28.305Z,72.73
2023-02-17T22:03:57.860Z,73.24
2023-02-17T22:06:27.075Z,72.56
2023-02-17T22:08:55.051Z,72.76
2023-02-17T22:11:24.526Z,72.58
2023-02-17T22:13:56.496Z,72.63
2023-02-17T22:16:24.796Z,72.80
2023-02-17T22:18:53.365Z,72.80
2023-02-17T22:21:21.412Z,73.55
2023-02-17T22:23:49.404Z,73.06
2023-02-17T22:26:18.409Z,73.44
2023-02-17T22:28:46.752Z,73.63
2023-02-17T22:31:17.334Z,73.77
2023-02-17T22:33:45.453Z,74.05
2023-02-17T22:36:14.568Z,73.96
2023-02-17T22:38:42.795Z,73.75
2023-02-17T22:41:11.944Z,73.73
2023-02-17T22:43:41.048Z,73.32
2023-02-17T22:46:10.222Z,73.25
2023-02-17T22:48:40.208Z,73.58
2023-02-17T22:51:11.678Z,74.33
2023-02-17T22:53:40.392Z,74.27
2023-02-17T22:56:09.449Z,74.14
2023-02-17T22:58:37.712Z,73.97
2023-02-17T23:01:06.328Z,73.80
2023-02-17T23:03:34.902Z,74.24
2023-02-17T23:06:05.513Z,73.80
2023-02-17T23:08:33.718Z,73.90
2023-02-17T23:11:04.775Z,73.74
2023-02-17T23:13:32.876Z,73.52
2023-02-17T23:16:00.868Z,73.44
2023-02-17T23:18:30.695Z,73.43
2023-02-17T23:20:59.382Z,73.04
2023-02-17T23:23:28.897Z,73.39
2023-02-17T23:25:57.036Z,73.09
2023-02-17T23:28:26.187Z,73.01
2023-02-17T23:30:54.693Z,73.15
2023-02-17T23:33:23.587Z,72.77
2023-02-17T23:35:51.562Z,72.48
2023-02-17T23:38:20.702Z,72.57
2023-02-17T23:40:51.425Z,72.22
2023-02-17T23:43:19.844Z,72.22
2023-02-17T23:45:47.887Z,71.69
2023-02-17T23:48:16.044Z,72.24
2023-02-17T23:50:44.152Z,72.33
2023-02-17T23:53:12.108Z,71.98
2023-02-17T23:55:40.071Z,72.01
2023-02-17T23:58:09.584Z,72.29
